Time;durP1;ratioP1;P1;durP2;ratioP2;P2;SDS_P1;SDS_P2;PMS_P1;PMS_P2;Temp;Humidity;BMP_temperature;BMP_pressure;BME280_temperature;BME280_humidity;BME280_pressure;Samples;Min_cycle;Max_cycle;Signal;HPM_P1;HPM_P2
2022/06/24 00:01:14;;;;;;;6.97;3.80;;;;;;;19.05;55.82;99224.31;8464382;28;20126;-78
2022/06/24 00:05:15;;;;;;;5.80;3.55;;;;;;;18.99;55.86;99227.34;8461014;28;20087;-77
2022/06/24 00:09:18;;;;;;;8.75;3.40;;;;;;;18.97;56.29;99234.34;8464194;28;20043;-77
2022/06/24 00:13:19;;;;;;;5.60;3.78;;;;;;;18.92;56.25;99227.22;8465048;28;20043;-78
2022/06/24 00:17:19;;;;;;;8.00;3.78;;;;;;;18.89;56.67;99233.38;8465184;28;20524;-78
2022/06/24 00:21:21;;;;;;;8.30;4.13;;;;;;;18.84;56.98;99230.94;8461835;28;20177;-79
2022/06/24 00:25:23;;;;;;;9.18;4.05;;;;;;;18.79;57.37;99223.03;8461672;28;20295;-78
2022/06/24 00:29:26;;;;;;;6.63;4.18;;;;;;;18.74;57.62;99226.06;8461551;28;20036;-77
2022/06/24 00:33:32;;;;;;;7.22;3.88;;;;;;;18.72;57.75;99228.34;8461425;28;20076;-78
2022/06/24 00:37:34;;;;;;;5.78;3.65;;;;;;;18.68;57.81;99222.00;8461042;28;20059;-78
2022/06/24 00:41:35;;;;;;;5.55;3.78;;;;;;;18.62;58.09;99212.50;8453263;28;20174;-77
2022/06/24 00:45:41;;;;;;;11.80;4.72;;;;;;;18.58;58.08;99217.13;8444173;28;20062;-79
2022/06/24 00:49:43;;;;;;;5.40;3.45;;;;;;;18.55;58.37;99212.38;8419515;28;20044;-76
2022/06/24 00:53:52;;;;;;;5.25;3.95;;;;;;;18.53;58.30;99198.22;8464668;28;20044;-77
2022/06/24 00:57:53;;;;;;;8.02;4.78;;;;;;;18.50;58.38;99198.97;8464624;28;20047;-79
2022/06/24 01:01:54;;;;;;;5.75;4.05;;;;;;;18.45;58.45;99201.97;8428407;28;20055;-77
2022/06/24 01:05:55;;;;;;;6.90;4.05;;;;;;;18.44;58.31;99192.19;8441833;28;20127;-78
2022/06/24 01:09:56;;;;;;;5.38;3.78;;;;;;;18.40;58.36;99189.34;8464371;28;20048;-77
2022/06/24 01:13:57;;;;;;;10.55;4.32;;;;;;;18.37;58.34;99194.75;8450730;28;20067;-79
2022/06/24 01:17:58;;;;;;;5.35;4.18;;;;;;;18.32;59.00;99192.31;8478503;27;20084;-77
2022/06/24 01:21:59;;;;;;;9.07;4.20;;;;;;;18.31;58.98;99193.44;8463619;28;20043;-78
2022/06/24 01:26:00;;;;;;;10.10;4.20;;;;;;;18.28;59.12;99191.44;8386708;28;20051;-77
2022/06/24 01:30:01;;;;;;;9.70;3.72;;;;;;;18.24;59.11;99196.03;8440267;28;20529;-77
2022/06/24 01:34:02;;;;;;;8.30;4.07;;;;;;;18.25;59.04;99192.13;8441968;28;20044;-76
2022/06/24 01:38:03;;;;;;;9.15;3.83;;;;;;;18.21;59.43;99191.28;8436068;28;20040;-78
2022/06/24 01:42:04;;;;;;;8.43;4.35;;;;;;;18.14;59.43;99187.22;8439384;28;20059;-77
2022/06/24 01:46:06;;;;;;;5.45;3.78;;;;;;;18.08;59.54;99183.19;8435197;28;20044;-78
2022/06/24 01:50:07;;;;;;;11.93;4.28;;;;;;;18.05;59.74;99177.66;8439030;28;20062;-77
2022/06/24 01:54:08;;;;;;;6.57;3.95;;;;;;;18.00;59.87;99181.44;8432421;28;20491;-78
2022/06/24 01:58:10;;;;;;;10.75;4.38;;;;;;;17.96;60.16;99186.06;8432543;28;20407;-77
2022/06/24 02:02:11;;;;;;;7.93;4.53;;;;;;;17.89;60.53;99180.41;8436756;28;20084;-77
2022/06/24 02:06:12;;;;;;;5.53;4.30;;;;;;;17.82;60.87;99174.78;8439423;28;20721;-78
2022/06/24 02:14:34;;;;;;;10.80;5.00;;;;;;;17.72;61.29;99180.78;8432736;28;20048;-76
2022/06/24 02:18:36;;;;;;;8.82;4.60;;;;;;;17.67;61.48;99172.84;8446178;27;20497;-78
2022/06/24 02:22:37;;;;;;;10.57;4.72;;;;;;;17.60;61.82;99172.69;8436632;28;20044;-78
2022/06/24 02:26:38;;;;;;;10.77;4.63;;;;;;;17.58;61.64;99164.03;8437831;28;20475;-76
2022/06/24 02:30:39;;;;;;;6.80;4.38;;;;;;;17.56;61.79;99149.91;8436356;28;20082;-77
2022/06/24 02:34:40;;;;;;;8.63;4.63;;;;;;;17.57;61.79;99156.97;8434237;28;20162;-78
2022/06/24 02:38:42;;;;;;;13.15;4.50;;;;;;;17.55;61.74;99153.81;8437069;28;20156;-77
2022/06/24 02:42:43;;;;;;;16.25;4.63;;;;;;;17.56;61.73;99155.38;8434717;28;20478;-78
2022/06/24 02:46:44;;;;;;;11.95;4.22;;;;;;;17.59;61.46;99160.16;8429698;28;20442;-78
2022/06/24 02:50:50;;;;;;;9.02;3.92;;;;;;;17.58;61.54;99158.56;8430749;28;20066;-77
2022/06/24 02:54:52;;;;;;;7.13;4.22;;;;;;;17.56;61.49;99158.13;8433115;28;20135;-77
2022/06/24 02:58:52;;;;;;;7.78;4.50;;;;;;;17.57;61.38;99167.91;8442659;28;20387;-77
2022/06/24 03:02:56;;;;;;;8.15;4.70;;;;;;;17.56;61.52;99163.56;8453148;28;20400;-77
2022/06/24 03:06:57;;;;;;;8.18;4.53;;;;;;;17.53;61.67;99167.03;8448231;28;20126;-77
2022/06/24 03:10:58;;;;;;;8.73;4.68;;;;;;;17.50;61.60;99162.28;8456575;28;20054;-78
2022/06/24 03:14:59;;;;;;;11.38;4.60;;;;;;;17.44;61.88;99169.16;8450592;28;20047;-77
2022/06/24 03:19:00;;;;;;;9.65;4.95;;;;;;;17.44;61.84;99159.03;8454043;28;20093;-78
2022/06/24 03:23:01;;;;;;;20.50;4.85;;;;;;;17.44;61.85;99152.78;8457529;28;20487;-78
2022/06/24 03:27:03;;;;;;;14.93;4.80;;;;;;;17.45;61.92;99148.91;8456411;28;20055;-78
2022/06/24 03:31:03;;;;;;;9.15;4.22;;;;;;;17.45;61.98;99154.38;8466999;28;20038;-78
2022/06/24 03:35:06;;;;;;;10.05;4.25;;;;;;;17.45;62.09;99154.38;8466363;28;20043;-78
2022/06/24 03:39:06;;;;;;;9.68;4.13;;;;;;;17.48;61.63;99159.09;8464735;28;20055;-78
2022/06/24 03:43:07;;;;;;;12.20;4.40;;;;;;;17.57;61.39;99167.91;8464714;28;20062;-78
2022/06/24 03:47:08;;;;;;;7.90;4.65;;;;;;;17.64;60.86;99162.66;8466054;28;20039;-78
2022/06/24 03:51:09;;;;;;;9.38;4.30;;;;;;;17.67;60.50;99167.38;8465833;28;20096;-79
2022/06/24 03:55:10;;;;;;;9.05;4.25;;;;;;;17.73;60.40;99158.59;8463877;28;20046;-78
2022/06/24 03:59:11;;;;;;;10.35;4.05;;;;;;;17.81;59.85;99167.75;8467808;28;20051;-79
2022/06/24 04:03:12;;;;;;;8.43;3.72;;;;;;;17.89;59.75;99168.69;8467025;28;20490;-77
2022/06/24 04:07:13;;;;;;;9.30;4.68;;;;;;;17.93;59.86;99170.34;8464657;27;20059;-78
2022/06/24 04:11:15;;;;;;;10.75;3.90;;;;;;;18.01;59.42;99177.56;8456511;28;20064;-78
2022/06/24 04:15:19;;;;;;;11.98;4.30;;;;;;;18.07;59.25;99176.16;8459277;28;20674;-78
2022/06/24 04:19:20;;;;;;;6.90;3.70;;;;;;;18.17;59.00;99174.00;8452150;28;20047;-78
2022/06/24 04:23:21;;;;;;;9.35;4.22;;;;;;;18.24;58.71;99179.63;8457533;28;20047;-79
2022/06/24 04:27:22;;;;;;;12.38;3.72;;;;;;;18.30;58.36;99172.72;8481100;27;20070;-78
2022/06/24 04:31:23;;;;;;;9.10;4.07;;;;;;;18.43;57.83;99182.38;8457929;28;20050;-78
2022/06/24 04:35:24;;;;;;;11.25;4.18;;;;;;;18.47;57.37;99173.09;8459834;28;20535;-78
2022/06/24 04:39:26;;;;;;;7.95;3.67;;;;;;;18.56;57.50;99179.16;8451375;28;20044;-79
2022/06/24 04:43:31;;;;;;;9.98;3.95;;;;;;;18.63;56.81;99178.53;8455492;28;20061;-79
2022/06/24 04:47:35;;;;;;;8.52;4.28;;;;;;;18.68;56.84;99180.97;8429408;28;20051;-79
2022/06/24 04:51:38;;;;;;;6.30;3.88;;;;;;;18.82;56.63;99172.28;8460870;28;20044;-79
2022/06/24 04:55:43;;;;;;;14.52;4.35;;;;;;;18.89;56.62;99167.72;8446320;28;20556;-78
2022/06/24 04:59:46;;;;;;;11.60;4.30;;;;;;;18.92;56.51;99172.47;8429571;28;20549;-79
2022/06/24 05:03:50;;;;;;;11.77;4.00;;;;;;;18.93;56.69;99168.56;8463781;28;20047;-79
2022/06/24 05:07:52;;;;;;;27.67;4.13;;;;;;;18.99;56.43;99172.59;8451182;28;20538;-79
2022/06/24 05:11:55;;;;;;;11.60;3.85;;;;;;;19.10;56.52;99178.28;8463272;28;20066;-80
2022/06/24 05:15:58;;;;;;;8.60;3.95;;;;;;;19.17;56.01;99175.66;8462235;28;20044;-80
2022/06/24 05:20:21;;;;;;;9.68;3.80;;;;;;;19.23;55.73;99167.94;8464552;28;20057;-80
2022/06/24 05:24:23;;;;;;;8.98;3.80;;;;;;;19.29;55.80;99163.75;8410100;28;20458;-79
2022/06/24 05:28:24;;;;;;;7.57;3.95;;;;;;;19.35;55.56;99167.78;8424449;28;20040;-79
2022/06/24 05:32:25;;;;;;;10.77;3.33;;;;;;;19.47;55.61;99164.88;8409975;28;20519;-79
2022/06/24 05:36:27;;;;;;;10.18;4.00;;;;;;;19.51;55.20;99165.72;8425179;28;20052;-78
2022/06/24 05:40:28;;;;;;;13.20;4.13;;;;;;;19.62;54.92;99177.63;8421307;28;20450;-80
2022/06/24 05:44:29;;;;;;;13.93;4.38;;;;;;;19.75;54.67;99170.81;8425535;28;20048;-79
2022/06/24 05:48:33;;;;;;;7.28;3.65;;;;;;;19.86;54.82;99164.69;8424114;28;20055;-79
2022/06/24 05:56:53;;;;;;;8.85;3.78;;;;;;;20.01;54.36;99166.50;8411794;28;20054;-79
2022/06/24 06:00:54;;;;;;;5.78;3.40;;;;;;;20.12;53.86;99162.75;8425649;28;20052;-79
2022/06/24 06:04:55;;;;;;;6.30;3.42;;;;;;;20.24;53.34;99164.47;8426121;28;20052;-79
2022/06/24 06:08:57;;;;;;;11.48;3.47;;;;;;;20.34;52.83;99163.84;8456844;28;20104;-79
2022/06/24 06:12:58;;;;;;;7.25;2.95;;;;;;;20.43;52.61;99161.63;8462942;27;20051;-79
2022/06/24 06:16:59;;;;;;;4.85;3.28;;;;;;;20.52;52.11;99164.84;8461408;28;20054;-81
2022/06/24 06:21:02;;;;;;;10.00;3.40;;;;;;;20.67;51.93;99156.81;8462319;28;20043;-80
2022/06/24 06:25:03;;;;;;;6.78;3.05;;;;;;;20.82;51.98;99164.84;8462753;28;20044;-80
2022/06/24 06:29:04;;;;;;;5.70;3.00;;;;;;;20.91;51.02;99164.53;8462114;28;20073;-79
2022/06/24 06:33:06;;;;;;;10.82;3.00;;;;;;;20.95;50.82;99159.84;8462122;28;20043;-80
2022/06/24 06:37:06;;;;;;;6.93;3.83;;;;;;;21.01;50.63;99153.66;8462075;28;20044;-80
2022/06/24 06:41:07;;;;;;;9.10;3.45;;;;;;;21.10;50.35;99156.09;8462035;28;20086;-81
2022/06/24 06:45:12;;;;;;;9.10;3.13;;;;;;;21.23;50.60;99149.19;8461957;28;20504;-80
2022/06/24 06:49:13;;;;;;;6.70;3.00;;;;;;;21.45;50.30;99145.47;8452101;28;20062;-78
2022/06/24 06:53:14;;;;;;;8.93;2.83;;;;;;;21.64;49.38;99146.38;8459690;28;20067;-80
2022/06/24 06:57:15;;;;;;;7.70;3.10;;;;;;;21.65;49.41;99143.28;8461566;28;20040;-81
2022/06/24 07:01:15;;;;;;;7.75;2.65;;;;;;;21.78;49.51;99135.53;8461693;28;20658;-80
2022/06/24 07:05:17;;;;;;;6.63;3.00;;;;;;;21.93;48.24;99142.69;8459650;28;20047;-80
2022/06/24 07:09:20;;;;;;;10.13;3.53;;;;;;;22.00;48.32;99130.94;8458706;28;20050;-79
2022/06/24 07:13:21;;;;;;;5.18;3.00;;;;;;;22.11;48.51;99127.09;8461531;28;20063;-80
2022/06/24 07:17:22;;;;;;;10.77;3.15;;;;;;;22.26;47.83;99126.00;8461125;28;20135;-80
2022/06/24 07:21:23;;;;;;;18.35;3.03;;;;;;;22.46;47.30;99120.19;8461396;28;20046;-79
2022/06/24 07:25:24;;;;;;;5.82;2.70;;;;;;;22.59;46.26;99129.66;8450358;28;20514;-79
2022/06/24 07:29:25;;;;;;;9.40;3.00;;;;;;;22.70;45.79;99120.28;8445836;28;20046;-85
2022/06/24 07:33:26;;;;;;;5.30;2.83;;;;;;;22.82;45.44;99121.91;8398844;28;20055;-80
2022/06/24 07:37:27;;;;;;;7.57;2.70;;;;;;;22.98;45.18;99130.59;8462737;28;20093;-81
2022/06/24 07:41:28;;;;;;;7.50;2.78;;;;;;;23.09;44.53;99114.88;8461620;28;20081;-82
2022/06/24 07:45:29;;;;;;;4.07;2.83;;;;;;;23.21;43.99;99099.16;8462475;28;20035;-81
2022/06/24 07:49:30;;;;;;;8.20;3.00;;;;;;;23.33;43.47;99112.53;8462980;28;20075;-83
2022/06/24 07:53:31;;;;;;;8.85;2.58;;;;;;;23.42;43.41;99104.66;8460467;28;20048;-81
2022/06/24 07:57:32;;;;;;;7.22;2.33;;;;;;;23.58;43.31;99091.31;8462826;28;20048;-82
2022/06/24 08:01:34;;;;;;;6.28;2.97;;;;;;;23.72;43.03;99091.28;8460824;28;20478;-82
2022/06/24 08:05:34;;;;;;;8.88;2.60;;;;;;;23.85;43.11;99089.66;8465835;28;20048;-79
2022/06/24 08:09:37;;;;;;;7.45;2.30;;;;;;;24.04;42.97;99090.41;8455429;28;20430;-79
2022/06/24 08:13:40;;;;;;;11.35;2.60;;;;;;;24.16;41.02;99087.22;8466724;28;20060;-78
2022/06/24 08:17:41;;;;;;;5.25;2.17;;;;;;;24.25;41.74;99062.78;8467250;28;20052;-77
2022/06/24 08:21:42;;;;;;;4.78;2.30;;;;;;;24.42;40.71;99072.16;8468280;28;20142;-78
2022/06/24 08:25:46;;;;;;;4.47;2.65;;;;;;;24.52;40.61;99066.59;8466220;28;20176;-76
2022/06/24 08:29:50;;;;;;;27.45;3.05;;;;;;;24.65;39.79;99070.44;8455264;28;20096;-79
2022/06/24 08:33:51;;;;;;;10.10;2.50;;;;;;;24.80;40.00;99065.59;8467416;28;20123;-77
2022/06/24 08:37:53;;;;;;;5.35;2.40;;;;;;;24.94;39.37;99064.78;8452009;28;20414;-78
2022/06/24 08:41:58;;;;;;;5.05;2.53;;;;;;;25.06;38.87;99050.47;8448590;28;20055;-80
2022/06/24 08:46:00;;;;;;;12.82;2.95;;;;;;;25.20;38.67;99055.88;8433288;28;20495;-79
2022/06/24 08:50:09;;;;;;;4.00;2.35;;;;;;;25.28;38.79;99051.84;8444777;28;20068;-79
2022/06/24 08:54:11;;;;;;;7.38;2.70;;;;;;;25.42;38.54;99040.69;8471534;27;20088;-78
2022/06/24 08:58:12;;;;;;;3.63;2.30;;;;;;;25.55;38.57;99036.22;8439414;28;20054;-78
2022/06/24 09:02:14;;;;;;;5.25;2.20;;;;;;;25.68;37.97;99044.00;8433076;28;20486;-79
2022/06/24 09:06:17;;;;;;;18.10;2.70;;;;;;;25.79;37.64;99041.91;8440718;28;20052;-79
2022/06/24 09:10:19;;;;;;;8.20;2.53;;;;;;;25.90;37.48;99028.75;8446910;28;20057;-78
2022/06/24 09:14:20;;;;;;;9.50;2.50;;;;;;;26.01;37.68;99037.72;8466656;28;20116;-79
2022/06/24 09:18:24;;;;;;;7.32;2.50;;;;;;;26.13;37.28;99031.63;8466195;28;20040;-80
2022/06/24 09:22:28;;;;;;;4.30;2.03;;;;;;;26.25;36.80;99024.78;8480803;27;20051;-78
2022/06/24 09:26:36;;;;;;;4.47;2.70;;;;;;;26.39;36.50;99035.66;8466182;28;20050;-78
2022/06/24 09:30:40;;;;;;;7.72;2.38;;;;;;;26.52;36.57;99038.66;8455962;28;20052;-78
2022/06/24 09:35:08;;;;;;;124.22;5.05;;;;;;;26.63;36.20;99039.28;8460462;28;20076;-79
2022/06/24 09:39:11;;;;;;;8.27;2.00;;;;;;;26.71;35.63;99018.59;8464335;28;20056;-77
2022/06/24 09:43:13;;;;;;;6.45;2.17;;;;;;;26.82;36.16;99033.06;8465297;27;20059;-79
2022/06/24 09:47:22;;;;;;;6.90;2.00;;;;;;;26.94;36.19;99021.44;8465330;28;20055;-77
2022/06/24 09:51:24;;;;;;;8.80;2.17;;;;;;;26.99;35.39;99029.25;8465209;28;20043;-78
2022/06/24 09:55:29;;;;;;;4.68;2.13;;;;;;;27.02;35.31;99017.31;8445751;28;20055;-77
2022/06/24 10:03:51;;;;;;;5.72;2.67;;;;;;;27.38;36.00;99011.19;8464180;28;20054;-78
2022/06/24 10:07:55;;;;;;;10.63;2.72;;;;;;;27.52;35.91;98997.88;8457512;28;20054;-80
2022/06/24 10:11:58;;;;;;;8.68;2.83;;;;;;;27.67;35.76;99001.16;8454049;27;20123;-79
2022/06/24 10:16:09;;;;;;;5.47;2.28;;;;;;;27.82;35.39;98996.88;8428425;28;20071;-78
2022/06/24 10:20:13;;;;;;;4.75;2.47;;;;;;;27.85;34.87;98996.03;8436109;28;20664;-79
2022/06/24 10:24:16;;;;;;;2.85;2.10;;;;;;;27.82;35.22;98973.91;8450545;28;20048;-78
2022/06/24 10:28:17;;;;;;;4.38;2.22;;;;;;;27.97;34.92;98975.94;8430181;28;20506;-79
2022/06/24 10:32:18;;;;;;;6.30;2.08;;;;;;;28.03;35.07;98979.78;8437966;28;20043;-78
2022/06/24 10:36:30;;;;;;;9.73;2.60;;;;;;;28.12;35.04;98977.28;8462943;28;20070;-78
2022/06/24 10:40:31;;;;;;;7.25;2.22;;;;;;;28.16;34.87;98970.84;8456781;28;20050;-80
2022/06/24 10:44:53;;;;;;;8.48;2.22;;;;;;;28.41;34.47;98965.50;8461461;28;20059;-78
2022/06/24 10:48:53;;;;;;;12.15;2.83;;;;;;;28.52;34.64;98966.03;8447949;28;20046;-78
2022/06/24 10:52:56;;;;;;;7.88;2.45;;;;;;;28.61;34.13;98962.66;8452033;28;20062;-80
2022/06/24 10:56:59;;;;;;;4.53;2.15;;;;;;;28.73;34.14;98954.47;8457742;28;20138;-78
2022/06/24 11:01:00;;;;;;;6.00;2.13;;;;;;;28.70;32.95;98954.53;8461230;28;20055;-78
2022/06/24 11:05:01;;;;;;;3.60;2.47;;;;;;;28.74;33.35;98960.78;8460731;28;20052;-79
2022/06/24 11:09:09;;;;;;;9.02;2.40;;;;;;;28.87;33.17;98942.97;8456827;28;20059;-78
2022/06/24 11:13:10;;;;;;;7.32;2.67;;;;;;;29.00;33.28;98934.72;8457431;28;20051;-79
2022/06/24 11:17:11;;;;;;;5.65;2.28;;;;;;;29.15;33.28;98935.91;8461012;28;20092;-78
2022/06/24 11:21:17;;;;;;;5.18;2.58;;;;;;;29.18;32.61;98928.72;8447463;28;20063;-78
2022/06/24 11:25:39;;;;;;;6.68;2.33;;;;;;;29.34;33.14;98915.56;8460140;28;20059;-78
2022/06/24 11:29:53;;;;;;;2.58;2.10;;;;;;;29.49;32.82;98927.06;8426166;28;20094;-79
2022/06/24 11:34:00;;;;;;;8.50;2.22;;;;;;;29.59;32.80;98917.66;8400120;28;20383;-79
2022/06/24 11:38:06;;;;;;;7.07;2.92;;;;;;;29.56;32.19;98910.16;8465281;28;20059;-79
2022/06/24 11:42:07;;;;;;;5.53;2.42;;;;;;;29.70;32.61;98898.66;8450120;28;20048;-78
2022/06/24 11:46:09;;;;;;;6.18;2.25;;;;;;;29.85;32.41;98892.66;8464286;28;20068;-79
2022/06/24 11:50:19;;;;;;;5.90;2.08;;;;;;;29.93;32.12;98905.19;8461816;28;20091;-79
2022/06/24 11:54:28;;;;;;;9.07;2.47;;;;;;;30.05;31.93;98913.53;8451931;28;20123;-79
2022/06/24 11:58:36;;;;;;;5.57;2.50;;;;;;;30.18;31.18;98910.75;8450565;28;20054;-79
2022/06/24 12:02:38;;;;;;;3.50;2.25;;;;;;;30.22;31.35;98894.69;8439999;28;20065;-78
2022/06/24 12:06:41;;;;;;;3.75;2.30;;;;;;;30.17;31.40;98892.47;8444455;28;20055;-79
2022/06/24 12:10:53;;;;;;;6.88;2.28;;;;;;;30.32;31.85;98888.00;8445995;28;20457;-80
2022/06/24 12:14:55;;;;;;;7.63;2.47;;;;;;;30.56;31.17;98880.88;8455146;28;20089;-79
2022/06/24 12:19:07;;;;;;;8.32;2.30;;;;;;;30.67;30.95;98885.34;8449109;28;20539;-82
2022/06/24 12:23:19;;;;;;;5.07;2.85;;;;;;;30.49;30.49;98875.56;8440281;28;20442;-80
2022/06/24 12:27:20;;;;;;;5.85;2.10;;;;;;;30.53;30.97;98879.00;8434198;28;20506;-79
2022/06/24 12:31:21;;;;;;;5.15;2.25;;;;;;;30.54;30.73;98861.03;8436298;28;20044;-80
2022/06/24 12:35:34;;;;;;;6.60;3.95;;;;;;;30.59;30.84;98868.84;8431211;28;20055;-80
2022/06/24 12:39:47;;;;;;;7.93;2.75;;;;;;;30.63;31.02;98863.13;8449067;28;20043;-81
2022/06/24 12:44:01;;;;;;;6.10;2.60;;;;;;;30.88;30.71;98848.38;8446832;28;20048;-84
2022/06/24 12:52:34;;;;;;;3.95;2.00;;;;;;;30.83;29.98;98844.13;8440870;28;20040;-83
2022/06/24 12:56:36;;;;;;;7.95;2.55;;;;;;;31.03;30.28;98841.06;8435567;28;20079;-80
2022/06/24 13:00:40;;;;;;;7.82;2.50;;;;;;;31.19;30.21;98843.69;8431355;28;20052;-82
2022/06/24 13:04:42;;;;;;;6.60;2.30;;;;;;;31.17;29.78;98829.41;8436535;28;20040;-80
2022/06/24 13:08:43;;;;;;;6.93;2.25;;;;;;;31.11;29.00;98836.78;8437976;28;20059;-80
2022/06/24 13:12:47;;;;;;;4.97;2.40;;;;;;;31.09;29.42;98827.34;8437675;27;20404;-80
2022/06/24 13:16:48;;;;;;;4.68;2.28;;;;;;;31.21;29.77;98824.47;8438721;28;20052;-82
2022/06/24 13:20:50;;;;;;;2.40;1.92;;;;;;;31.31;29.21;98819.72;8447051;28;20616;-80
2022/06/24 13:24:51;;;;;;;6.00;2.38;;;;;;;31.44;29.67;98804.47;8436073;28;20052;-78
2022/06/24 13:28:55;;;;;;;10.20;2.25;;;;;;;31.35;29.19;98818.38;8448087;28;20059;-77
2022/06/24 13:32:56;;;;;;;6.68;2.28;;;;;;;31.42;29.14;98801.34;8447248;28;20414;-80
2022/06/24 13:37:00;;;;;;;5.95;2.33;;;;;;;31.58;28.60;98791.22;8465595;28;20040;-79
2022/06/24 13:41:02;;;;;;;5.07;2.20;;;;;;;32.82;27.65;98809.28;8465591;28;20051;-79
2022/06/24 13:45:04;;;;;;;7.00;2.22;;;;;;;33.65;26.15;98802.34;8465129;28;20055;-81
2022/06/24 13:49:05;;;;;;;5.47;2.47;;;;;;;34.56;25.15;98803.94;8465369;27;20569;-81
2022/06/24 13:53:07;;;;;;;9.60;2.50;;;;;;;35.47;24.15;98801.13;8463815;28;20044;-79
2022/06/24 13:57:08;;;;;;;6.93;2.28;;;;;;;35.75;23.70;98809.25;8462004;28;20126;-82
2022/06/24 14:01:09;;;;;;;3.65;1.95;;;;;;;36.11;23.15;98806.00;8460513;28;20044;-79
2022/06/24 14:05:10;;;;;;;8.60;2.30;;;;;;;36.70;22.79;98797.34;8432188;28;20051;-80
2022/06/24 14:09:11;;;;;;;5.10;2.33;;;;;;;37.50;22.25;98795.63;8428679;28;20048;-79
2022/06/24 14:13:12;;;;;;;4.00;2.03;;;;;;;37.71;21.03;98783.03;8432089;28;20046;-80
2022/06/24 14:17:13;;;;;;;6.30;2.33;;;;;;;37.41;21.11;98776.09;8428799;28;20075;-79
2022/06/24 14:21:16;;;;;;;5.70;2.20;;;;;;;37.79;21.08;98784.13;8429375;28;20066;-81
2022/06/24 14:25:17;;;;;;;3.17;2.00;;;;;;;37.48;20.64;98775.66;8433344;28;20138;-79
2022/06/24 14:29:18;;;;;;;6.03;2.30;;;;;;;37.64;21.22;98769.41;8429571;28;20040;-79
2022/06/24 14:33:19;;;;;;;5.20;2.40;;;;;;;37.13;22.03;98768.16;8434169;28;20479;-82
2022/06/24 14:41:39;;;;;;;6.18;2.10;;;;;;;35.04;22.86;98768.19;8421423;28;20059;-80
2022/06/24 14:45:40;;;;;;;3.97;1.90;;;;;;;34.65;23.52;98759.75;8444963;28;20044;-79
2022/06/24 14:49:41;;;;;;;3.75;1.85;;;;;;;35.10;23.65;98755.03;8448195;28;20092;-80
2022/06/24 14:53:42;;;;;;;3.05;1.90;;;;;;;35.63;22.84;98740.09;8443813;27;20051;-79
2022/06/24 14:57:43;;;;;;;3.22;1.70;;;;;;;35.43;23.30;98744.38;8448392;27;20047;-80
2022/06/24 15:01:45;;;;;;;4.15;1.70;;;;;;;34.86;23.84;98734.69;8437352;28;20031;-81
2022/06/24 15:05:47;;;;;;;6.38;1.90;;;;;;;34.34;24.16;98736.97;8451640;28;20041;-80
2022/06/24 15:09:47;;;;;;;3.17;1.75;;;;;;;34.32;23.88;98725.44;8444444;28;20056;-79
2022/06/24 15:13:49;;;;;;;2.33;1.77;;;;;;;34.02;24.70;98723.75;8442213;28;20100;-80
2022/06/24 15:17:49;;;;;;;6.72;1.65;;;;;;;33.79;24.67;98728.84;8433752;28;20043;-77
2022/06/24 15:21:50;;;;;;;6.38;1.85;;;;;;;33.55;24.87;98724.44;8475890;27;20040;-78
2022/06/24 15:25:51;;;;;;;4.30;1.90;;;;;;;33.27;24.72;98720.97;8444399;28;20475;-80
2022/06/24 15:29:52;;;;;;;4.38;2.10;;;;;;;33.69;24.51;98712.56;8437844;28;20048;-80
2022/06/24 15:33:53;;;;;;;5.10;1.85;;;;;;;34.30;23.69;98711.16;8449949;28;20079;-80
2022/06/24 15:37:56;;;;;;;7.20;2.13;;;;;;;33.60;24.25;98716.19;8461669;28;20067;-79
2022/06/24 15:42:00;;;;;;;3.00;1.88;;;;;;;33.09;25.11;98708.56;8457737;28;20084;-79
2022/06/24 15:46:02;;;;;;;3.50;2.20;;;;;;;32.57;25.46;98711.72;8462563;28;20048;-79
2022/06/24 15:50:04;;;;;;;4.22;1.90;;;;;;;32.45;25.78;98704.28;8462375;28;20048;-78
2022/06/24 15:54:06;;;;;;;8.63;2.30;;;;;;;32.04;27.08;98706.41;8460908;28;20063;-77
2022/06/24 15:58:08;;;;;;;10.18;2.13;;;;;;;31.63;27.64;98709.69;8461239;28;20070;-78
2022/06/24 16:02:09;;;;;;;5.88;2.17;;;;;;;31.36;28.35;98713.09;8459884;28;20050;-77
2022/06/24 16:06:10;;;;;;;6.25;2.17;;;;;;;31.17;28.71;98717.84;8455372;28;20073;-79
2022/06/24 16:10:11;;;;;;;7.15;2.72;;;;;;;30.86;28.90;98719.78;8440343;28;20048;-79
2022/06/24 16:14:12;;;;;;;2.85;2.25;;;;;;;30.64;29.74;98719.78;8460562;28;20040;-80
2022/06/24 16:18:14;;;;;;;6.47;2.40;;;;;;;30.72;29.71;98721.06;8471474;27;20036;-79
2022/06/24 16:22:15;;;;;;;9.10;2.28;;;;;;;30.59;29.79;98728.72;8462780;28;20387;-80
2022/06/24 16:30:35;;;;;;;8.27;2.17;;;;;;;30.15;30.75;98738.97;8450044;28;20062;-81
2022/06/24 16:34:36;;;;;;;6.32;2.30;;;;;;;29.83;31.67;98733.63;8468006;28;20104;-80
2022/06/24 16:38:39;;;;;;;10.35;2.58;;;;;;;29.67;32.02;98735.31;8453917;28;20052;-80
2022/06/24 16:43:15;;;;;;;14.52;2.80;;;;;;;29.60;32.32;98727.22;8465764;28;20529;-78
2022/06/24 16:47:06;;;;;;;5.72;2.75;;;;;;;29.48;32.79;98722.44;8459793;28;20048;-80
2022/06/24 16:51:10;;;;;;;7.88;2.40;;;;;;;29.67;32.61;98721.41;8466279;28;20095;-80
2022/06/24 16:55:11;;;;;;;5.15;2.75;;;;;;;29.71;31.84;98727.66;8466785;28;20134;-80
2022/06/24 16:59:12;;;;;;;9.40;2.80;;;;;;;29.91;32.01;98724.66;8452994;28;20039;-81
2022/06/24 17:03:13;;;;;;;10.02;2.70;;;;;;;29.86;32.25;98718.84;8460948;28;20050;-80
2022/06/24 17:07:14;;;;;;;8.18;2.78;;;;;;;29.74;32.45;98721.19;8464242;28;20379;-80
2022/06/24 17:11:15;;;;;;;6.38;2.60;;;;;;;29.51;32.45;98724.31;8465921;28;20039;-80
2022/06/24 17:15:18;;;;;;;8.07;2.40;;;;;;;29.44;32.38;98713.41;8465653;28;20036;-79
2022/06/24 17:19:19;;;;;;;6.47;2.50;;;;;;;29.22;32.81;98718.03;8463777;28;20067;-80
2022/06/24 17:23:20;;;;;;;3.22;2.35;;;;;;;29.11;33.10;98707.25;8466096;28;20043;-80
2022/06/24 17:27:21;;;;;;;8.80;3.00;;;;;;;28.93;33.17;98710.53;8465046;28;20471;-79
2022/06/24 17:31:22;;;;;;;5.32;2.53;;;;;;;28.81;33.66;98705.75;8464170;28;20051;-78
2022/06/24 17:35:23;;;;;;;4.93;2.60;;;;;;;28.76;33.86;98703.50;8463272;28;20044;-80
2022/06/24 17:39:25;;;;;;;7.95;2.72;;;;;;;28.62;34.20;98709.41;8446440;28;20035;-81
2022/06/24 17:43:26;;;;;;;10.88;2.70;;;;;;;28.49;34.39;98701.06;8462646;28;20482;-80
2022/06/24 17:47:27;;;;;;;9.50;3.05;;;;;;;28.43;34.89;98707.56;8464189;28;20051;-82
2022/06/24 17:51:28;;;;;;;9.50;2.50;;;;;;;28.26;35.19;98703.25;8463501;28;20086;-80
2022/06/24 17:55:29;;;;;;;5.60;2.70;;;;;;;27.97;35.69;98698.41;8459781;28;20044;-81
2022/06/24 17:59:31;;;;;;;4.28;2.70;;;;;;;27.85;35.85;98693.56;8463758;28;20073;-79
2022/06/24 18:03:32;;;;;;;6.30;2.65;;;;;;;27.69;35.51;98688.03;8462003;28;20062;-79
2022/06/24 18:07:33;;;;;;;3.78;2.38;;;;;;;27.53;35.59;98690.78;8457725;27;20083;-81
2022/06/24 18:11:36;;;;;;;9.88;2.60;;;;;;;27.43;35.63;98697.34;8445605;28;20066;-79
2022/06/24 18:15:37;;;;;;;7.18;2.63;;;;;;;27.30;35.71;98695.22;8460022;28;20050;-80
2022/06/24 18:19:38;;;;;;;5.53;2.65;;;;;;;27.17;36.08;98685.25;8450523;27;20055;-81
2022/06/24 18:23:39;;;;;;;4.78;2.95;;;;;;;26.98;36.04;98689.59;8464625;28;20047;-80
2022/06/24 18:27:40;;;;;;;8.80;2.55;;;;;;;26.82;36.58;98697.84;8464563;28;20065;-78
2022/06/24 18:31:41;;;;;;;8.13;3.10;;;;;;;26.70;36.70;98701.28;8464073;28;20051;-80
2022/06/24 18:35:42;;;;;;;7.78;2.92;;;;;;;26.52;36.95;98706.34;8462907;28;20092;-80
2022/06/24 18:39:43;;;;;;;4.80;2.50;;;;;;;26.31;37.45;98700.03;8427763;28;20494;-81
2022/06/24 18:43:44;;;;;;;8.43;2.28;;;;;;;26.19;37.32;98699.81;8478247;27;20051;-81
2022/06/24 18:47:45;;;;;;;3.60;2.63;;;;;;;26.08;37.70;98700.00;8464084;28;20067;-81
2022/06/24 18:51:46;;;;;;;8.50;2.90;;;;;;;25.94;37.86;98700.25;8463699;28;20047;-79
2022/06/24 18:55:48;;;;;;;4.68;2.72;;;;;;;25.78;38.50;98711.19;8462113;28;20047;-80
2022/06/24 18:59:51;;;;;;;5.22;3.05;;;;;;;25.65;38.54;98717.31;8455313;28;20056;-80
2022/06/24 19:03:52;;;;;;;12.18;2.88;;;;;;;25.48;38.87;98723.88;8459978;28;20378;-81
2022/06/24 19:07:53;;;;;;;6.35;2.97;;;;;;;25.34;39.06;98723.28;8461473;28;20056;-81
2022/06/24 19:11:55;;;;;;;7.32;5.05;;;;;;;25.19;39.47;98722.69;8457445;28;20459;-80
2022/06/24 19:15:56;;;;;;;4.43;2.80;;;;;;;25.07;39.59;98726.00;8454211;28;20038;-80
2022/06/24 19:19:57;;;;;;;5.68;3.17;;;;;;;24.98;40.06;98722.97;8463272;28;20051;-79
2022/06/24 19:23:58;;;;;;;3.97;2.60;;;;;;;24.82;40.15;98721.56;8462009;28;20139;-79